Monday, December 18, 2017, 5:05 PM EST
Back to Local

KBJJ, Wooster Wayne County Airport

Location: Smithville, OH, United States Lat: 40.867
Local Time: 5:05 PM EST (22:05 GMT) Lon: -81.883
Time Zone: US/Eastern Elev: 1138 ft

Show me the last for .
Show Coded

Time T Td Feel RH Dir Speed Gust Alt SLP Vis Weather Sky Remarks
2017-12-18 16:38 40 38 34 92 220° 9 - 29.95 - 6 BR FEW019 OVC048 None
2017-12-18 16:10 41 39 37 92 230° 6 - 29.96 - 6 BR BKN015 OVC022 None
2017-12-18 15:56 41 39 36 92 240° 7 - 29.96 29.98 4 BR BKN011 OVC017 1-hr Precip Total: Trace
6-hr Precip Total (4pm): 0.00"
2017-12-18 14:56 40 39 35 96 230° 7 - 29.95 29.97 6 BR OVC010 1-hr Precip Total: Trace
2017-12-18 14:33 40 39 34 96 240° 9 - 29.95 - 5 BR OVC006 1-hr Precip Total: Trace
2017-12-18 14:03 39 39 33 100 240° 8 - 29.96 - 4 BR OVC005 None
2017-12-18 13:56 39 38 33 95 240° 9 - 29.95 29.98 3 BR OVC004 1-hr Precip Total: Trace
2017-12-18 13:49 39 38 33 95 240° 9 - 29.96 - 3 BR OVC004 1-hr Precip Total: Trace
2017-12-18 13:30 39 38 33 95 230° 9 - 29.96 - 2 BR OVC004 1-hr Precip Total: Trace
2017-12-18 12:56 39 38 32 95 220° 12 - 29.96 29.99 1 -RA BR OVC003 1-hr Precip Total: Trace
6-hr Precip Total (1pm): 0.00"
6-hr Min Temp (1pm): 35.1°F
6-hr Max Temp (1pm): 39.0°F
2017-12-18 12:36 38 38 31 100 220° 9 - 29.97 - 1 BR OVC003 None
2017-12-18 11:56 38 37 30 96 230° 12 - 29.98 30.01 1 BR OVC003 None
2017-12-18 11:18 38 37 30 96 220° 12 - 30.00 - 1 BR OVC002 None
2017-12-18 11:05 37 37 30 100 220° 9 - 30.01 - 1 BR OVC002 None
2017-12-18 10:56 37 37 31 100 220° 8 - 30.01 30.04 1 BR OVC002 None
2017-12-18 10:10 37 36 31 95 210° 8 - 30.03 - 1 BR OVC003 None
2017-12-18 09:56 37 36 30 95 210° 9 - 30.03 30.06 2 BR OVC003 None
2017-12-18 09:25 37 36 31 95 220° 8 - 30.03 - 2 BR OVC004 None
2017-12-18 09:13 37 36 30 95 210° 10 - 30.03 - 3 BR OVC004 None
2017-12-18 08:56 37 36 30 95 220° 10 - 30.03 30.06 3 BR OVC005 None
2017-12-18 08:28 37 35 30 92 210° 9 - 30.03 - 3 BR OVC005 None
2017-12-18 07:56 36 34 30 92 210° 8 - 30.04 30.07 6 BR OVC007 None
2017-12-18 07:10 35 33 29 92 210° 8 - 30.04 - 7 BKN009 OVC040 None
2017-12-18 06:56 36 33 30 89 210° 7 - 30.03 30.06 7 OVC041 24-hr Precip Total (7am): 0.02"
6-hr Min Temp (7am): 33.1°F
6-hr Max Temp (7am): 36.0°F
2017-12-18 05:56 36 33 30 89 220° 8 - 30.03 30.06 8 OVC041 None
2017-12-18 04:56 35 32 30 88 220° 6 - 30.04 30.06 8 OVC042 None
2017-12-18 03:56 35 31 29 84 210° 8 - 30.05 30.08 9 OVC047 None
2017-12-18 02:56 36 31 32 81 210° 5 - 30.05 30.08 9 OVC050 None
2017-12-18 01:56 35 32 31 88 200° 5 - 30.04 30.07 8 FEW043 OVC055 None
2017-12-18 00:56 34 32 - 92 - Calm - 30.06 30.08 7 FEW047 OVC055 6-hr Precip Total (1am): 0.00"
6-hr Min Temp (1am): 33.1°F
6-hr Max Temp (1am): 35.1°F
2017-12-17 23:56 34 32 - 92 - Calm - 30.08 30.11 7 FEW033 OVC060 24-hr Min Temp (12am): 21.0°F
24-hr Max Temp (12am): 37.0°F
2017-12-17 22:56 35 32 - 88 - Calm - 30.08 30.11 7 BKN034 OVC065 None
2017-12-17 21:56 35 32 30 88 220° 6 - 30.09 30.12 8 OVC035 6-hr Precip Total (10pm): 0.00"
2017-12-17 20:56 35 33 30 92 230° 6 - 30.09 30.12 7 BKN037 OVC049 1-hr Precip Total: Trace
2017-12-17 19:56 35 32 28 88 210° 9 - 30.09 30.13 8 OVC037 None
2017-12-17 18:56 34 32 28 92 190° 7 - 30.07 30.11 7 OVC050 6-hr Precip Total (7pm): 0.02"
6-hr Min Temp (7pm): 33.1°F
6-hr Max Temp (7pm): 37.0°F
2017-12-17 17:56 34 32 28 92 170° 7 - 30.08 30.11 6 BR FEW045 BKN060 OVC080 1-hr Precip Total: Trace

Support USWX by starting your Amazon purchase here.